createdAt,value
2018-10-11T00:00:32.547Z,1007.63
2018-10-11T00:01:33.344Z,1007.60
2018-10-11T00:02:32.549Z,1007.57
2018-10-11T00:03:32.520Z,1007.62
2018-10-11T00:04:32.512Z,1007.58
2018-10-11T00:05:32.496Z,1007.58
2018-10-11T00:06:33.343Z,1007.62
2018-10-11T00:07:32.859Z,1007.60
2018-10-11T00:08:32.458Z,1007.62
2018-10-11T00:09:33.345Z,1007.67
2018-10-11T00:10:32.442Z,1007.61
2018-10-11T00:11:33.342Z,1007.63
2018-10-11T00:12:32.855Z,1007.68
2018-10-11T00:13:32.405Z,1007.69
2018-10-11T00:14:32.394Z,1007.67
2018-10-11T00:15:32.394Z,1007.65
2018-10-11T00:16:33.341Z,1007.69
2018-10-11T00:17:32.376Z,1007.65
2018-10-11T00:18:32.351Z,1007.63
2018-10-11T00:19:32.845Z,1007.65
2018-10-11T00:20:32.846Z,1007.65
2018-10-11T00:21:32.322Z,1007.70
2018-10-11T00:22:32.328Z,1007.70
2018-10-11T00:23:32.302Z,1007.69
2018-10-11T00:24:32.291Z,1007.62
2018-10-11T00:25:32.277Z,1007.73
2018-10-11T00:26:32.267Z,1007.68
2018-10-11T00:27:32.363Z,1007.66
2018-10-11T00:28:32.254Z,1007.61
2018-10-11T00:29:32.851Z,1007.60
2018-10-11T00:30:32.860Z,1007.70
2018-10-11T00:31:32.218Z,1007.72
2018-10-11T00:32:32.353Z,1007.74
2018-10-11T00:33:32.202Z,1007.66
2018-10-11T00:34:32.844Z,1007.64
2018-10-11T00:35:32.171Z,1007.66
2018-10-11T00:36:32.845Z,1007.72
2018-10-11T00:37:32.359Z,1007.65
2018-10-11T00:38:32.145Z,1007.67
2018-10-11T00:39:32.140Z,1007.67
2018-10-11T00:40:32.845Z,1007.59
2018-10-11T00:41:32.104Z,1007.60
2018-10-11T00:42:32.114Z,1007.59
2018-10-11T00:43:32.085Z,1007.56
2018-10-11T00:44:32.855Z,1007.56
2018-10-11T00:45:32.064Z,1007.60
2018-10-11T00:46:32.054Z,1007.51
2018-10-11T00:47:32.070Z,1007.49
2018-10-11T00:48:32.846Z,1007.51
2018-10-11T00:49:32.111Z,1007.52
2018-10-11T00:50:32.011Z,1007.47
2018-10-11T00:51:31.996Z,1007.49
2018-10-11T00:52:32.049Z,1007.48
2018-10-11T00:53:32.846Z,1007.43
2018-10-11T00:54:31.976Z,1007.44
2018-10-11T00:55:31.968Z,1007.45
2018-10-11T00:56:31.997Z,1007.42
2018-10-11T00:57:31.955Z,1007.37
2018-10-11T00:58:31.925Z,1007.44
2018-10-11T00:59:32.845Z,1007.46
2018-10-11T01:00:31.899Z,1007.42
2018-10-11T01:01:32.863Z,1007.43
2018-10-11T01:02:32.360Z,1007.40
2018-10-11T01:03:31.881Z,1007.39
2018-10-11T01:04:31.861Z,1007.39
2018-10-11T01:05:31.852Z,1007.32
2018-10-11T01:06:31.887Z,1007.36
2018-10-11T01:07:31.845Z,1007.29
2018-10-11T01:08:31.821Z,1007.31
2018-10-11T01:09:32.449Z,1007.20
2018-10-11T01:10:31.798Z,1007.24
2018-10-11T01:11:31.806Z,1007.23
2018-10-11T01:12:31.952Z,1007.24
2018-10-11T01:13:31.771Z,1007.21
2018-10-11T01:14:31.761Z,1007.27
2018-10-11T01:15:31.763Z,1007.23
2018-10-11T01:16:31.741Z,1007.18
2018-10-11T01:17:31.760Z,1007.26
2018-10-11T01:18:31.709Z,1007.23
2018-10-11T01:19:32.346Z,1007.24
2018-10-11T01:20:31.688Z,1007.24
2018-10-11T01:21:31.693Z,1007.22
2018-10-11T01:22:32.347Z,1007.21
2018-10-11T01:23:31.884Z,1007.22
2018-10-11T01:24:31.655Z,1007.20
2018-10-11T01:25:32.348Z,1007.19
2018-10-11T01:26:31.633Z,1007.21
2018-10-11T01:27:31.619Z,1007.25
2018-10-11T01:28:31.873Z,1007.23
2018-10-11T01:29:32.361Z,1007.19
2018-10-11T01:30:31.579Z,1007.21
2018-10-11T01:31:31.570Z,1007.22
2018-10-11T01:32:31.562Z,1007.23
2018-10-11T01:33:31.872Z,1007.21
2018-10-11T01:34:31.573Z,1007.19
2018-10-11T01:35:31.524Z,1007.24
2018-10-11T01:36:32.349Z,1007.29
2018-10-11T01:37:31.506Z,1007.24
2018-10-11T01:38:31.550Z,1007.27
2018-10-11T01:39:32.353Z,1007.21
2018-10-11T01:40:32.343Z,1007.23
2018-10-11T01:41:31.470Z,1007.24
2018-10-11T01:42:32.356Z,1007.21
2018-10-11T01:43:31.458Z,1007.21
2018-10-11T01:44:31.456Z,1007.19
2018-10-11T01:45:32.378Z,1007.19
2018-10-11T01:46:32.356Z,1007.24
2018-10-11T01:47:32.358Z,1007.22
2018-10-11T01:48:31.400Z,1007.16
2018-10-11T01:49:31.382Z,1007.07
2018-10-11T01:50:31.365Z,1007.11
2018-10-11T01:51:31.356Z,1007.09
2018-10-11T01:52:31.350Z,1007.11
2018-10-11T01:53:31.878Z,1007.03
2018-10-11T01:54:31.846Z,1007.05
2018-10-11T01:55:31.849Z,1007.07
2018-10-11T01:56:31.309Z,1007.02
2018-10-11T01:57:31.326Z,1007.02
2018-10-11T01:58:31.300Z,1007.01
2018-10-11T01:59:31.275Z,1006.89
2018-10-11T02:00:31.264Z,1007.00
2018-10-11T02:01:31.249Z,1007.00
2018-10-11T02:02:31.300Z,1006.98
2018-10-11T02:03:31.239Z,1006.98
2018-10-11T02:04:31.852Z,1006.99
2018-10-11T02:05:31.858Z,1006.97
2018-10-11T02:06:31.861Z,1007.01
2018-10-11T02:07:31.854Z,1007.03
2018-10-11T02:08:31.186Z,1007.03
2018-10-11T02:09:31.952Z,1006.99
2018-10-11T02:10:31.153Z,1006.92
2018-10-11T02:11:31.891Z,1006.88
2018-10-11T02:12:31.852Z,1006.90
2018-10-11T02:13:31.135Z,1006.92
2018-10-11T02:14:31.145Z,1006.95
2018-10-11T02:15:31.115Z,1006.93
2018-10-11T02:16:31.847Z,1006.90
2018-10-11T02:17:31.853Z,1006.92
2018-10-11T02:18:31.385Z,1006.90
2018-10-11T02:19:31.069Z,1006.89
2018-10-11T02:20:31.849Z,1006.82
2018-10-11T02:21:31.033Z,1006.91
2018-10-11T02:22:32.011Z,1006.89
2018-10-11T02:23:31.030Z,1006.89
2018-10-11T02:24:31.029Z,1006.89
2018-10-11T02:25:30.991Z,1006.87
2018-10-11T02:26:31.848Z,1006.86
2018-10-11T02:27:31.865Z,1006.83
2018-10-11T02:28:31.359Z,1006.83
2018-10-11T02:29:30.951Z,1006.84
2018-10-11T02:30:31.865Z,1006.85
2018-10-11T02:31:30.936Z,1006.82
2018-10-11T02:32:31.857Z,1006.85
2018-10-11T02:33:30.935Z,1006.89
2018-10-11T02:34:31.846Z,1006.88
2018-10-11T02:35:31.850Z,1006.80
2018-10-11T02:36:31.869Z,1006.86
2018-10-11T02:37:30.876Z,1006.88
2018-10-11T02:38:31.364Z,1006.86
2018-10-11T02:39:30.845Z,1006.89
2018-10-11T02:40:30.834Z,1006.89
2018-10-11T02:41:30.825Z,1006.87
2018-10-11T02:42:30.822Z,1006.90
2018-10-11T02:43:30.886Z,1006.90
2018-10-11T02:44:30.786Z,1006.94
2018-10-11T02:45:30.777Z,1006.91
2018-10-11T02:46:31.350Z,1006.90
2018-10-11T02:47:31.350Z,1006.89
2018-10-11T02:48:30.773Z,1006.86
2018-10-11T02:49:31.350Z,1006.81
2018-10-11T02:50:30.722Z,1006.87
2018-10-11T02:51:30.720Z,1006.86
2018-10-11T02:52:31.368Z,1006.88
2018-10-11T02:53:30.886Z,1006.88
2018-10-11T02:54:30.681Z,1006.87
2018-10-11T02:55:30.669Z,1006.85
2018-10-11T02:56:30.665Z,1006.78
2018-10-11T02:57:30.645Z,1006.77
2018-10-11T02:58:30.677Z,1006.78
2018-10-11T02:59:30.627Z,1006.80
2018-10-11T03:00:30.616Z,1006.78
2018-10-11T03:01:30.610Z,1006.79
2018-10-11T03:02:31.349Z,1006.79
2018-10-11T03:03:30.883Z,1006.79
2018-10-11T03:04:30.612Z,1006.71
2018-10-11T03:05:31.358Z,1006.70
2018-10-11T03:06:30.555Z,1006.68
2018-10-11T03:07:30.553Z,1006.71
2018-10-11T03:08:30.878Z,1006.71
2018-10-11T03:09:31.358Z,1006.71
2018-10-11T03:10:31.355Z,1006.66
2018-10-11T03:11:31.379Z,1006.67
2018-10-11T03:12:31.352Z,1006.61
2018-10-11T03:13:30.876Z,1006.68
2018-10-11T03:14:30.464Z,1006.69
2018-10-11T03:15:31.357Z,1006.69
2018-10-11T03:16:30.442Z,1006.70
2018-10-11T03:17:30.431Z,1006.70
2018-10-11T03:18:30.864Z,1006.64
2018-10-11T03:19:31.351Z,1006.65
2018-10-11T03:20:30.402Z,1006.63
2018-10-11T03:21:31.360Z,1006.60
2018-10-11T03:22:30.379Z,1006.69
2018-10-11T03:23:30.400Z,1006.59
2018-10-11T03:24:30.366Z,1006.54
2018-10-11T03:25:30.854Z,1006.65
2018-10-11T03:26:30.341Z,1006.60
2018-10-11T03:27:30.328Z,1006.63
2018-10-11T03:28:30.859Z,1006.64
2018-10-11T03:29:30.337Z,1006.63
2018-10-11T03:30:30.861Z,1006.63
2018-10-11T03:31:30.283Z,1006.68
2018-10-11T03:32:30.290Z,1006.73
2018-10-11T03:33:30.259Z,1006.74
2018-10-11T03:34:30.371Z,1006.68
2018-10-11T03:35:30.246Z,1006.75
2018-10-11T03:36:30.229Z,1006.80
2018-10-11T03:37:30.217Z,1006.83
2018-10-11T03:38:30.859Z,1006.89
2018-10-11T03:39:30.216Z,1006.93
2018-10-11T03:40:30.865Z,1006.90
2018-10-11T03:41:30.173Z,1006.88
2018-10-11T03:42:30.160Z,1006.89
2018-10-11T03:43:30.154Z,1006.85
2018-10-11T03:44:30.172Z,1006.83
2018-10-11T03:45:30.138Z,1006.81
2018-10-11T03:46:30.131Z,1006.74
2018-10-11T03:47:30.854Z,1006.75
2018-10-11T03:48:30.854Z,1006.72
2018-10-11T03:49:30.105Z,1006.77
2018-10-11T03:50:30.071Z,1006.72
2018-10-11T03:51:30.860Z,1006.72
2018-10-11T03:52:30.071Z,1006.81
2018-10-11T03:53:30.044Z,1006.83
2018-10-11T03:54:30.046Z,1006.87
2018-10-11T03:55:30.027Z,1006.86
2018-10-11T03:56:30.852Z,1006.88
2018-10-11T03:57:30.864Z,1006.87
2018-10-11T03:58:29.988Z,1006.86
2018-10-11T03:59:30.001Z,1006.92
2018-10-11T04:00:29.967Z,1006.92
2018-10-11T04:01:30.857Z,1006.97
2018-10-11T04:02:29.944Z,1007.00
2018-10-11T04:03:30.864Z,1007.05
2018-10-11T04:04:30.249Z,1007.04
2018-10-11T04:05:29.897Z,1007.01
2018-10-11T04:06:29.911Z,1007.01
2018-10-11T04:07:29.912Z,1006.97
2018-10-11T04:08:30.860Z,1006.92
2018-10-11T04:09:29.917Z,1006.90
2018-10-11T04:10:30.850Z,1006.87
2018-10-11T04:11:30.349Z,1006.84
2018-10-11T04:12:30.340Z,1006.86
2018-10-11T04:13:30.348Z,1006.84
2018-10-11T04:14:29.869Z,1006.81
2018-10-11T04:15:29.795Z,1006.74
2018-10-11T04:16:29.779Z,1006.77
2018-10-11T04:17:29.778Z,1006.79
2018-10-11T04:18:30.341Z,1006.79
2018-10-11T04:19:29.853Z,1006.78
2018-10-11T04:20:30.357Z,1006.80
2018-10-11T04:21:29.732Z,1006.79
2018-10-11T04:22:29.712Z,1006.74
2018-10-11T04:23:29.702Z,1006.73
2018-10-11T04:24:29.749Z,1006.73
2018-10-11T04:25:30.357Z,1006.73
2018-10-11T04:26:29.677Z,1006.73
2018-10-11T04:27:29.677Z,1006.75
2018-10-11T04:28:29.654Z,1006.74
2018-10-11T04:29:30.357Z,1006.80
2018-10-11T04:30:30.341Z,1006.83
2018-10-11T04:31:29.625Z,1006.79
2018-10-11T04:32:30.358Z,1006.83
2018-10-11T04:33:29.594Z,1006.80
2018-10-11T04:34:29.883Z,1006.80
2018-10-11T04:35:29.574Z,1006.78
2018-10-11T04:36:30.339Z,1006.78
2018-10-11T04:37:29.554Z,1006.84
2018-10-11T04:38:29.540Z,1006.78
2018-10-11T04:39:29.665Z,1006.76
2018-10-11T04:40:29.526Z,1006.78
2018-10-11T04:41:29.510Z,1006.76
2018-10-11T04:42:29.499Z,1006.67
2018-10-11T04:43:30.348Z,1006.73
2018-10-11T04:44:29.496Z,1006.69
2018-10-11T04:45:29.472Z,1006.73
2018-10-11T04:46:30.339Z,1006.75
2018-10-11T04:47:29.449Z,1006.78
2018-10-11T04:48:30.344Z,1006.72
2018-10-11T04:49:29.885Z,1006.73
2018-10-11T04:50:30.342Z,1006.74
2018-10-11T04:51:29.401Z,1006.68
2018-10-11T04:52:29.391Z,1006.69
2018-10-11T04:53:29.440Z,1006.65
2018-10-11T04:54:29.383Z,1006.67
2018-10-11T04:55:29.358Z,1006.65
2018-10-11T04:56:30.349Z,1006.65
2018-10-11T04:57:29.339Z,1006.71
2018-10-11T04:58:29.846Z,1006.68
2018-10-11T04:59:29.359Z,1006.67
2018-10-11T05:00:29.303Z,1006.63
2018-10-11T05:01:29.903Z,1006.63
2018-10-11T05:02:29.288Z,1006.65
2018-10-11T05:03:29.845Z,1006.66
2018-10-11T05:04:29.360Z,1006.62
2018-10-11T05:05:29.937Z,1006.60
2018-10-11T05:06:29.244Z,1006.65
2018-10-11T05:07:29.844Z,1006.63
2018-10-11T05:08:29.843Z,1006.67
2018-10-11T05:09:29.253Z,1006.63
2018-10-11T05:10:29.193Z,1006.68
2018-10-11T05:11:29.208Z,1006.73
2018-10-11T05:12:29.840Z,1006.77
2018-10-11T05:13:29.844Z,1006.76
2018-10-11T05:14:29.352Z,1006.73
2018-10-11T05:15:29.861Z,1006.71
2018-10-11T05:16:29.146Z,1006.75
2018-10-11T05:17:29.915Z,1006.78
2018-10-11T05:18:29.842Z,1006.72
2018-10-11T05:19:29.110Z,1006.81
2018-10-11T05:20:29.092Z,1006.87
2018-10-11T05:21:29.149Z,1006.87
2018-10-11T05:22:29.074Z,1006.99
2018-10-11T05:23:29.068Z,1007.04
2018-10-11T05:24:29.359Z,1007.07
2018-10-11T05:25:29.066Z,1007.07
2018-10-11T05:26:29.042Z,1007.09
2018-10-11T05:27:29.022Z,1007.09
2018-10-11T05:28:29.013Z,1007.12
2018-10-11T05:29:29.161Z,1007.06
2018-10-11T05:30:28.988Z,1007.02
2018-10-11T05:31:29.055Z,1007.07
2018-10-11T05:32:28.959Z,1007.03
2018-10-11T05:33:29.843Z,1006.90
2018-10-11T05:34:28.943Z,1006.97
2018-10-11T05:35:28.963Z,1007.00
2018-10-11T05:36:29.852Z,1006.96
2018-10-11T05:37:29.841Z,1006.97
2018-10-11T05:38:29.839Z,1006.90
2018-10-11T05:39:28.878Z,1006.93
2018-10-11T05:40:29.356Z,1007.01
2018-10-11T05:41:29.873Z,1006.90
2018-10-11T05:42:28.851Z,1006.92
2018-10-11T05:43:29.342Z,1006.88
2018-10-11T05:44:29.388Z,1006.86
2018-10-11T05:45:28.859Z,1006.97
2018-10-11T05:46:28.825Z,1006.97
2018-10-11T05:47:28.803Z,1006.99
2018-10-11T05:48:29.350Z,1006.94
2018-10-11T05:49:29.343Z,1006.92
2018-10-11T05:50:28.880Z,1006.90
2018-10-11T05:51:29.344Z,1006.92
2018-10-11T05:52:29.361Z,1006.93
2018-10-11T05:53:29.353Z,1006.86
2018-10-11T05:54:29.354Z,1006.87
2018-10-11T05:55:28.732Z,1006.88
2018-10-11T05:56:28.705Z,1006.88
2018-10-11T05:57:28.702Z,1006.92
2018-10-11T05:58:28.761Z,1006.96
2018-10-11T05:59:28.667Z,1007.04
2018-10-11T06:00:28.673Z,1007.06
2018-10-11T06:01:28.650Z,1007.08
2018-10-11T06:02:28.645Z,1007.16
2018-10-11T06:03:29.345Z,1007.16
2018-10-11T06:04:28.617Z,1007.21
2018-10-11T06:05:28.777Z,1007.24
2018-10-11T06:06:28.594Z,1007.25
2018-10-11T06:07:28.603Z,1007.24
2018-10-11T06:08:28.591Z,1007.32
2018-10-11T06:09:29.370Z,1007.34
2018-10-11T06:10:28.881Z,1007.28
2018-10-11T06:11:29.348Z,1007.33
2018-10-11T06:12:28.561Z,1007.36
2018-10-11T06:13:28.537Z,1007.41
2018-10-11T06:14:28.695Z,1007.39
2018-10-11T06:15:28.876Z,1007.49
2018-10-11T06:16:28.483Z,1007.52
2018-10-11T06:17:28.507Z,1007.50
2018-10-11T06:18:29.354Z,1007.50
2018-10-11T06:19:29.359Z,1007.43
2018-10-11T06:20:28.494Z,1007.48
2018-10-11T06:21:29.374Z,1007.47
2018-10-11T06:22:28.419Z,1007.41
2018-10-11T06:23:28.409Z,1007.42
2018-10-11T06:24:28.399Z,1007.49
2018-10-11T06:25:28.881Z,1007.43
2018-10-11T06:26:28.390Z,1007.42
2018-10-11T06:27:28.370Z,1007.46
2018-10-11T06:28:28.361Z,1007.45
2018-10-11T06:29:28.391Z,1007.55
2018-10-11T06:30:28.451Z,1007.51
2018-10-11T06:31:28.334Z,1007.47
2018-10-11T06:32:28.847Z,1007.49
2018-10-11T06:33:28.332Z,1007.52
2018-10-11T06:34:28.353Z,1007.51
2018-10-11T06:35:28.370Z,1007.50
2018-10-11T06:36:28.489Z,1007.51
2018-10-11T06:37:28.279Z,1007.52
2018-10-11T06:38:28.249Z,1007.50
2018-10-11T06:39:28.254Z,1007.47
2018-10-11T06:40:28.236Z,1007.51
2018-10-11T06:41:28.882Z,1007.50
2018-10-11T06:42:29.103Z,1007.55
2018-10-11T06:43:28.189Z,1007.57
2018-10-11T06:44:28.181Z,1007.63
2018-10-11T06:45:28.982Z,1007.65
2018-10-11T06:46:28.877Z,1007.76
2018-10-11T06:47:28.171Z,1007.77
2018-10-11T06:48:28.142Z,1007.72
2018-10-11T06:49:28.876Z,1007.68
2018-10-11T06:50:29.097Z,1007.74
2018-10-11T06:51:28.112Z,1007.75
2018-10-11T06:52:28.090Z,1007.75
2018-10-11T06:53:28.856Z,1007.83
2018-10-11T06:54:28.872Z,1007.78
2018-10-11T06:55:28.098Z,1007.81
2018-10-11T06:56:28.161Z,1007.77
2018-10-11T06:57:28.871Z,1007.85
2018-10-11T06:58:28.861Z,1007.83
2018-10-11T06:59:28.017Z,1007.91
2018-10-11T07:00:28.885Z,1007.83
2018-10-11T07:01:28.979Z,1007.95
2018-10-11T07:02:28.910Z,1007.98
2018-10-11T07:03:27.974Z,1007.96
2018-10-11T07:04:28.030Z,1007.98
2018-10-11T07:05:28.881Z,1008.04
2018-10-11T07:06:29.015Z,1008.05
2018-10-11T07:07:28.886Z,1008.15
2018-10-11T07:08:28.064Z,1008.16
2018-10-11T07:09:28.855Z,1008.15
2018-10-11T07:10:30.014Z,1008.22
2018-10-11T07:11:28.888Z,1008.17
2018-10-11T07:12:28.927Z,1008.20
2018-10-11T07:13:28.930Z,1008.19
2018-10-11T07:14:27.873Z,1008.17
2018-10-11T07:15:27.888Z,1008.17
2018-10-11T07:16:27.830Z,1008.20
2018-10-11T07:17:27.820Z,1008.13
2018-10-11T07:18:27.818Z,1008.16
2018-10-11T07:19:27.938Z,1008.16
2018-10-11T07:20:27.881Z,1008.28
2018-10-11T07:21:27.780Z,1008.22
2018-10-11T07:22:27.777Z,1008.27
2018-10-11T07:23:27.775Z,1008.34
2018-10-11T07:24:28.355Z,1008.35
2018-10-11T07:25:28.447Z,1008.31
2018-10-11T07:26:28.355Z,1008.41
2018-10-11T07:27:28.354Z,1008.38
2018-10-11T07:28:28.497Z,1008.46
2018-10-11T07:29:27.728Z,1008.35
2018-10-11T07:30:27.885Z,1008.45
2018-10-11T07:31:28.362Z,1008.36
2018-10-11T07:32:28.351Z,1008.51
2018-10-11T07:33:28.358Z,1008.53
2018-10-11T07:34:28.394Z,1008.44
2018-10-11T07:35:28.152Z,1008.53
2018-10-11T07:36:28.452Z,1008.54
2018-10-11T07:37:28.459Z,1008.56
2018-10-11T07:38:28.389Z,1008.60
2018-10-11T07:39:28.394Z,1008.50
2018-10-11T07:40:28.555Z,1008.60
2018-10-11T07:41:28.393Z,1008.60
2018-10-11T07:42:28.351Z,1008.61
2018-10-11T07:43:27.595Z,1008.65
2018-10-11T07:44:27.681Z,1008.66
2018-10-11T07:45:28.532Z,1008.69
2018-10-11T07:46:28.390Z,1008.77
2018-10-11T07:47:28.573Z,1008.79
2018-10-11T07:48:30.402Z,1008.75
2018-10-11T07:49:28.460Z,1008.70
2018-10-11T07:50:28.644Z,1008.67
2018-10-11T07:51:28.396Z,1008.50
2018-10-11T07:52:28.367Z,1008.49
2018-10-11T07:53:28.360Z,1008.44
2018-10-11T07:54:27.454Z,1008.37
2018-10-11T07:55:28.355Z,1008.50
2018-10-11T07:56:28.376Z,1008.36
2018-10-11T07:57:28.378Z,1008.48
2018-10-11T07:58:27.474Z,1008.38
2018-10-11T07:59:27.452Z,1008.48
2018-10-11T08:00:27.532Z,1008.54
2018-10-11T08:01:27.894Z,1008.39
2018-10-11T08:02:27.374Z,1008.28
2018-10-11T08:03:27.471Z,1008.41
2018-10-11T08:04:27.530Z,1008.38
2018-10-11T08:05:27.343Z,1008.54
2018-10-11T08:06:27.400Z,1008.47
2018-10-11T08:07:27.574Z,1008.37
2018-10-11T08:08:27.413Z,1008.44
2018-10-11T08:09:27.303Z,1008.45
2018-10-11T08:10:27.409Z,1008.36
2018-10-11T08:11:27.617Z,1008.42
2018-10-11T08:12:27.268Z,1008.50
2018-10-11T08:13:27.358Z,1008.41
2018-10-11T08:14:27.247Z,1008.45
2018-10-11T08:15:27.230Z,1008.48
2018-10-11T08:16:27.585Z,1008.37
2018-10-11T08:17:29.067Z,1008.48
2018-10-11T08:18:27.212Z,1008.45
2018-10-11T08:19:28.033Z,1008.47
2018-10-11T08:20:27.879Z,1008.54
2018-10-11T08:21:27.926Z,1008.54
2018-10-11T08:22:27.861Z,1008.70
2018-10-11T08:23:27.240Z,1008.50
2018-10-11T08:24:27.164Z,1008.55
2018-10-11T08:25:28.353Z,1008.47
2018-10-11T08:26:27.820Z,1008.64
2018-10-11T08:27:27.919Z,1008.51
2018-10-11T08:28:27.861Z,1008.51
2018-10-11T08:29:27.862Z,1008.45
2018-10-11T08:30:27.860Z,1008.57
2018-10-11T08:31:27.904Z,1008.53
2018-10-11T08:32:28.144Z,1008.50
2018-10-11T08:33:28.099Z,1008.52
2018-10-11T08:34:27.909Z,1008.66
2018-10-11T08:35:27.036Z,1008.60
2018-10-11T08:36:27.889Z,1008.62
2018-10-11T08:37:27.933Z,1008.52
2018-10-11T08:38:27.978Z,1008.64
2018-10-11T08:39:27.865Z,1008.65
2018-10-11T08:40:27.875Z,1008.61
2018-10-11T08:41:27.890Z,1008.68
2018-10-11T08:42:29.956Z,1008.57
2018-10-11T08:43:27.906Z,1008.59
2018-10-11T08:44:27.886Z,1008.60
2018-10-11T08:45:27.859Z,1008.59
2018-10-11T08:46:27.383Z,1008.52
2018-10-11T08:47:26.911Z,1008.62
2018-10-11T08:48:27.858Z,1008.64
2018-10-11T08:49:27.868Z,1008.74
2018-10-11T08:50:27.605Z,1008.70
2018-10-11T08:51:28.379Z,1008.59
2018-10-11T08:52:26.829Z,1008.58
2018-10-11T08:53:29.417Z,1008.63
2018-10-11T08:54:27.359Z,1008.62
2018-10-11T08:55:27.561Z,1008.61
2018-10-11T08:56:27.408Z,1008.57
2018-10-11T08:57:29.418Z,1008.61
2018-10-11T08:58:27.411Z,1008.68
2018-10-11T08:59:26.889Z,1008.60
2018-10-11T09:00:27.554Z,1008.57
2018-10-11T09:01:27.383Z,1008.63
2018-10-11T09:02:27.366Z,1008.57
2018-10-11T09:03:27.458Z,1008.58
2018-10-11T09:04:27.373Z,1008.54
2018-10-11T09:05:26.775Z,1008.59
2018-10-11T09:06:27.380Z,1008.60
2018-10-11T09:07:26.674Z,1008.60
2018-10-11T09:08:27.482Z,1008.52
2018-10-11T09:09:27.407Z,1008.51
2018-10-11T09:10:37.862Z,1008.55
2018-10-11T09:11:26.953Z,1008.59
2018-10-11T09:12:26.747Z,1008.53
2018-10-11T09:13:27.447Z,1008.55
2018-10-11T09:14:27.497Z,1008.59
2018-10-11T09:15:27.392Z,1008.55
2018-10-11T09:16:28.384Z,1008.62
2018-10-11T09:17:29.437Z,1008.59
2018-10-11T09:18:27.493Z,1008.53
2018-10-11T09:19:27.366Z,1008.61
2018-10-11T09:20:27.362Z,1008.61
2018-10-11T09:21:27.396Z,1008.62
2018-10-11T09:22:27.430Z,1008.51
2018-10-11T09:23:29.494Z,1008.60
2018-10-11T09:24:27.365Z,1008.54
2018-10-11T09:25:27.430Z,1008.53
2018-10-11T09:26:27.401Z,1008.57
2018-10-11T09:27:27.364Z,1008.56
2018-10-11T09:28:27.392Z,1008.63
2018-10-11T09:29:27.370Z,1008.51
2018-10-11T09:30:27.529Z,1008.52
2018-10-11T09:31:27.392Z,1008.51
2018-10-11T09:32:26.446Z,1008.46
2018-10-11T09:33:27.447Z,1008.47
2018-10-11T09:34:27.456Z,1008.51
2018-10-11T09:35:27.401Z,1008.53
2018-10-11T09:36:26.966Z,1008.48
2018-10-11T09:37:26.365Z,1008.39
2018-10-11T09:38:26.901Z,1008.42
2018-10-11T09:39:26.873Z,1008.43
2018-10-11T09:40:26.940Z,1008.38
2018-10-11T09:41:26.905Z,1008.33
2018-10-11T09:42:26.890Z,1008.35
2018-10-11T09:43:26.862Z,1008.35
2018-10-11T09:44:26.870Z,1008.37
2018-10-11T09:45:27.033Z,1008.38
2018-10-11T09:46:26.888Z,1008.36
2018-10-11T09:47:26.464Z,1008.37
2018-10-11T09:48:26.252Z,1008.40
2018-10-11T09:49:26.336Z,1008.40
2018-10-11T09:50:26.228Z,1008.40
2018-10-11T09:51:27.475Z,1008.41
2018-10-11T09:52:26.200Z,1008.37
2018-10-11T09:53:26.866Z,1008.32
2018-10-11T09:54:26.917Z,1008.34
2018-10-11T09:55:26.885Z,1008.30
2018-10-11T09:56:26.978Z,1008.36
2018-10-11T09:57:26.973Z,1008.30
2018-10-11T09:58:26.913Z,1008.34
2018-10-11T09:59:29.521Z,1008.28
2018-10-11T10:00:26.862Z,1008.32
2018-10-11T10:01:26.953Z,1008.28
2018-10-11T10:02:26.928Z,1008.28
2018-10-11T10:03:26.930Z,1008.33
2018-10-11T10:04:26.862Z,1008.37
2018-10-11T10:05:26.878Z,1008.31
2018-10-11T10:06:26.040Z,1008.36
2018-10-11T10:07:27.934Z,1008.32
2018-10-11T10:08:26.924Z,1008.31
2018-10-11T10:09:27.123Z,1008.30
2018-10-11T10:10:25.867Z,1008.21
2018-10-11T10:11:26.913Z,1008.27
2018-10-11T10:12:26.880Z,1008.31
2018-10-11T10:13:26.869Z,1008.31
2018-10-11T10:14:26.867Z,1008.25
2018-10-11T10:15:28.873Z,1008.33
2018-10-11T10:16:29.081Z,1008.31
2018-10-11T10:17:27.043Z,1008.34
2018-10-11T10:18:27.001Z,1008.29
2018-10-11T10:19:26.865Z,1008.30
2018-10-11T10:20:26.891Z,1008.29
2018-10-11T10:21:27.409Z,1008.35
2018-10-11T10:22:26.390Z,1008.35
2018-10-11T10:23:26.363Z,1008.24
2018-10-11T10:24:26.368Z,1008.28
2018-10-11T10:25:26.374Z,1008.25
2018-10-11T10:26:26.364Z,1008.23
2018-10-11T10:27:27.472Z,1008.25
2018-10-11T10:28:26.363Z,1008.27
2018-10-11T10:29:26.364Z,1008.16
2018-10-11T10:30:26.444Z,1008.19
2018-10-11T10:31:26.368Z,1008.26
2018-10-11T10:32:26.390Z,1008.23
2018-10-11T10:33:26.380Z,1008.22
2018-10-11T10:34:25.776Z,1008.19
2018-10-11T10:35:26.482Z,1008.20
2018-10-11T10:36:26.386Z,1008.14
2018-10-11T10:37:25.720Z,1008.17
2018-10-11T10:38:26.364Z,1008.16
2018-10-11T10:39:26.399Z,1008.15
2018-10-11T10:40:26.550Z,1008.14
2018-10-11T10:41:28.473Z,1008.16
2018-10-11T10:42:26.685Z,1008.18
2018-10-11T10:43:26.367Z,1008.11
2018-10-11T10:44:26.376Z,1008.10
2018-10-11T10:45:25.628Z,1008.04
2018-10-11T10:46:25.689Z,1008.03
2018-10-11T10:47:26.457Z,1008.01
2018-10-11T10:48:26.426Z,1008.02
2018-10-11T10:49:25.624Z,1007.99
2018-10-11T10:50:26.373Z,1007.97
2018-10-11T10:51:26.366Z,1008.04
2018-10-11T10:52:26.628Z,1007.98
2018-10-11T10:53:26.408Z,1008.01
2018-10-11T10:54:26.541Z,1008.01
2018-10-11T10:55:26.372Z,1008.00
2018-10-11T10:56:26.652Z,1008.01
2018-10-11T10:57:26.376Z,1007.97
2018-10-11T10:58:26.531Z,1007.90
2018-10-11T10:59:26.365Z,1007.91
2018-10-11T11:00:25.466Z,1007.84
2018-10-11T11:01:26.508Z,1007.80
2018-10-11T11:02:26.377Z,1007.87
2018-10-11T11:03:25.505Z,1007.82
2018-10-11T11:04:26.369Z,1007.85
2018-10-11T11:05:25.529Z,1007.82
2018-10-11T11:06:26.510Z,1007.89
2018-10-11T11:07:26.418Z,1007.90
2018-10-11T11:08:25.607Z,1007.84
2018-10-11T11:09:26.397Z,1007.82
2018-10-11T11:10:25.899Z,1007.85
2018-10-11T11:11:25.876Z,1007.77
2018-10-11T11:12:26.005Z,1007.80
2018-10-11T11:13:25.877Z,1007.84
2018-10-11T11:14:25.425Z,1007.79
2018-10-11T11:15:25.301Z,1007.73
2018-10-11T11:16:25.362Z,1007.66
2018-10-11T11:17:25.506Z,1007.75
2018-10-11T11:18:25.934Z,1007.74
2018-10-11T11:19:25.874Z,1007.67
2018-10-11T11:20:25.880Z,1007.70
2018-10-11T11:21:26.008Z,1007.72
2018-10-11T11:22:26.073Z,1007.67
2018-10-11T11:23:25.225Z,1007.66
2018-10-11T11:24:25.871Z,1007.66
2018-10-11T11:25:25.201Z,1007.73
2018-10-11T11:26:25.873Z,1007.68
2018-10-11T11:27:26.167Z,1007.69
2018-10-11T11:28:25.264Z,1007.64
2018-10-11T11:29:25.236Z,1007.57
2018-10-11T11:30:25.878Z,1007.56
2018-10-11T11:31:25.872Z,1007.56
2018-10-11T11:32:26.001Z,1007.61
2018-10-11T11:33:25.923Z,1007.53
2018-10-11T11:34:25.873Z,1007.58
2018-10-11T11:35:25.926Z,1007.54
2018-10-11T11:36:25.238Z,1007.54
2018-10-11T11:37:26.158Z,1007.59
2018-10-11T11:38:27.901Z,1007.58
2018-10-11T11:39:25.058Z,1007.60
2018-10-11T11:40:25.964Z,1007.57
2018-10-11T11:41:27.947Z,1007.53
2018-10-11T11:42:26.011Z,1007.48
2018-10-11T11:43:25.868Z,1007.50
2018-10-11T11:44:25.873Z,1007.54
2018-10-11T11:45:26.004Z,1007.59
2018-10-11T11:46:25.959Z,1007.56
2018-10-11T11:47:26.062Z,1007.62
2018-10-11T11:48:25.017Z,1007.62
2018-10-11T11:49:24.937Z,1007.61
2018-10-11T11:50:25.917Z,1007.53
2018-10-11T11:51:26.093Z,1007.62
2018-10-11T11:52:25.625Z,1007.57
2018-10-11T11:53:24.969Z,1007.64
2018-10-11T11:54:25.867Z,1007.62
2018-10-11T11:55:25.420Z,1007.66
2018-10-11T11:56:24.909Z,1007.57
2018-10-11T11:57:24.873Z,1007.66
2018-10-11T11:58:25.507Z,1007.65
2018-10-11T11:59:25.377Z,1007.55
2018-10-11T12:00:24.821Z,1007.64
2018-10-11T12:01:25.139Z,1007.63
2018-10-11T12:02:25.393Z,1007.65
2018-10-11T12:03:25.496Z,1007.61
2018-10-11T12:04:24.886Z,1007.58
2018-10-11T12:05:25.478Z,1007.55